createdAt,value
2023-01-13T00:09:56.673Z,2.19
2023-01-13T00:19:57.091Z,2.10
2023-01-13T00:29:57.368Z,2.31
2023-01-13T00:39:57.641Z,2.39
2023-01-13T00:49:57.932Z,2.02
2023-01-13T00:59:58.248Z,2.08
2023-01-13T01:09:58.520Z,1.95
2023-01-13T01:19:58.957Z,1.96
2023-01-13T01:39:59.202Z,1.81
2023-01-13T01:49:59.467Z,1.77
2023-01-13T01:59:59.679Z,1.90
2023-01-13T02:09:59.914Z,1.79
2023-01-13T02:20:00.115Z,1.88
2023-01-13T02:30:00.351Z,1.96
2023-01-13T02:40:00.625Z,1.94
2023-01-13T02:50:00.842Z,2.12
2023-01-13T03:00:01.029Z,2.22
2023-01-13T03:10:01.314Z,2.39
2023-01-13T03:20:01.595Z,2.30
2023-01-13T03:30:01.839Z,2.25
2023-01-13T03:40:02.149Z,2.19
2023-01-13T03:50:02.444Z,2.25
2023-01-13T04:10:03.058Z,2.24
2023-01-13T04:20:03.460Z,2.47
2023-01-13T04:30:03.815Z,2.31
2023-01-13T04:40:04.037Z,2.62
2023-01-13T04:50:04.349Z,2.69
2023-01-13T05:00:04.683Z,2.70
2023-01-13T05:10:05.058Z,2.61
2023-01-13T05:20:05.455Z,2.51
2023-01-13T05:30:05.771Z,2.51
2023-01-13T05:40:06.110Z,2.49
2023-01-13T05:50:06.491Z,2.35
2023-01-13T06:00:06.822Z,2.44
2023-01-13T06:10:07.176Z,2.46
2023-01-13T06:20:07.526Z,2.16
2023-01-13T06:30:07.892Z,2.29
2023-01-13T06:40:08.234Z,2.23
2023-01-13T06:50:08.551Z,2.00
2023-01-13T07:00:08.846Z,2.03
2023-01-13T07:10:09.153Z,2.02
2023-01-13T07:20:09.455Z,2.05
2023-01-13T07:30:09.774Z,2.22
2023-01-13T07:50:10.282Z,2.50
2023-01-13T08:00:12.847Z,2.61
2023-01-13T08:10:11.040Z,2.82
2023-01-13T08:20:11.459Z,2.79
2023-01-13T08:30:11.808Z,2.89
2023-01-13T08:40:12.248Z,3.04
2023-01-13T08:50:12.650Z,3.11
2023-01-13T09:00:13.002Z,3.20
2023-01-13T09:10:13.470Z,3.18
2023-01-13T09:20:14.073Z,3.09
2023-01-13T09:30:14.336Z,3.07
2023-01-13T09:40:14.949Z,3.03
2023-01-13T09:50:15.229Z,2.87
2023-01-13T10:00:15.470Z,2.90
2023-01-13T10:10:15.597Z,2.72
2023-01-13T10:20:17.253Z,2.70
2023-01-13T10:30:17.635Z,2.84
2023-01-13T10:40:16.571Z,2.70
2023-01-13T10:50:17.168Z,2.85
2023-01-13T11:00:17.102Z,2.74
2023-01-13T11:10:17.479Z,2.58
2023-01-13T11:20:17.680Z,2.76
2023-01-13T11:40:19.439Z,3.07
2023-01-13T11:50:18.478Z,2.97
2023-01-13T12:00:18.800Z,2.90
2023-01-13T12:10:19.381Z,3.05
2023-01-13T12:20:19.365Z,3.18
2023-01-13T12:30:19.708Z,3.20
2023-01-13T12:40:20.012Z,3.40
2023-01-13T12:50:20.502Z,3.42
2023-01-13T13:00:20.761Z,3.37
2023-01-13T13:10:21.064Z,3.52
2023-01-13T13:20:21.635Z,3.42
2023-01-13T13:30:21.907Z,3.47
2023-01-13T13:40:22.179Z,3.57
2023-01-13T13:50:22.770Z,3.77
2023-01-13T14:00:23.083Z,3.96
2023-01-13T14:10:23.094Z,3.92
2023-01-13T14:20:23.396Z,4.25
2023-01-13T14:30:25.728Z,4.10
2023-01-13T14:40:24.376Z,4.15
2023-01-13T14:50:26.195Z,4.25
2023-01-13T15:00:24.942Z,4.32
2023-01-13T15:10:25.240Z,4.35
2023-01-13T15:20:26.935Z,4.38
2023-01-13T15:30:26.077Z,4.17
2023-01-13T15:40:26.619Z,4.12
2023-01-13T15:50:26.797Z,4.05
2023-01-13T16:00:27.240Z,4.07
2023-01-13T16:10:27.522Z,4.16
2023-01-13T16:20:28.092Z,4.23
2023-01-13T16:30:28.390Z,4.22
2023-01-13T16:40:30.917Z,4.20
2023-01-13T16:50:29.089Z,4.28
2023-01-13T17:00:29.727Z,4.23
2023-01-13T17:10:29.921Z,4.35
2023-01-13T17:20:30.312Z,4.38
2023-01-13T17:30:30.709Z,4.46
2023-01-13T17:40:31.152Z,4.59
2023-01-13T17:50:31.599Z,4.63
2023-01-13T18:00:34.018Z,4.65
2023-01-13T18:10:32.628Z,4.64
2023-01-13T18:20:32.877Z,4.69
2023-01-13T18:30:33.331Z,4.73
2023-01-13T18:40:33.795Z,4.75
2023-01-13T18:50:34.217Z,4.73
2023-01-13T19:00:36.715Z,4.64
2023-01-13T19:10:35.511Z,4.81
2023-01-13T19:20:35.824Z,4.88
2023-01-13T19:30:36.980Z,4.83
2023-01-13T19:40:36.701Z,4.89
2023-01-13T19:50:37.299Z,4.97
2023-01-13T20:00:37.331Z,5.02
2023-01-13T20:10:37.993Z,5.05
2023-01-13T20:20:38.192Z,5.01
2023-01-13T20:30:38.783Z,4.93
2023-01-13T20:40:41.027Z,4.82
2023-01-13T20:50:39.462Z,5.06
2023-01-13T21:00:41.970Z,5.02
2023-01-13T21:10:40.537Z,4.88
2023-01-13T21:20:42.795Z,4.70
2023-01-13T21:30:43.274Z,4.63
2023-01-13T21:40:41.551Z,4.76
2023-01-13T21:50:42.257Z,4.52
2023-01-13T22:00:42.569Z,4.79
2023-01-13T22:10:43.065Z,4.72
2023-01-13T22:20:43.218Z,4.91
2023-01-13T22:30:43.571Z,4.92
2023-01-13T22:40:43.967Z,4.87
2023-01-13T22:50:44.424Z,4.68
2023-01-13T23:00:44.960Z,4.48
2023-01-13T23:10:45.435Z,4.41
2023-01-13T23:20:45.855Z,4.39
2023-01-13T23:30:46.301Z,4.48
2023-01-13T23:40:46.741Z,4.36
2023-01-13T23:50:47.140Z,4.42
